Terminal Aerodrome Forecast
Issued by NWS

Home | Current Version | Previous Version | Text Only | Print | Product List | Glossary On
Versions: 1 2 3 4 5 6 7 8 9 10 11 12 13
000
FTPA31 PHFO 311100
TAFMKK
TAF
PHMK 311139Z 3112/0112 04012G20KT P6SM FEW025 SCT045
     FM311600 04012G20KT P6SM VCSH SCT025 BKN045
     FM312000 05018G28KT P6SM VCSH SCT025 BKN045
     FM010400 05012G22KT P6SM SCT025 SCT045
     FM010900 05010KT P6SM SCT025 SCT045=

USA.gov is the U.S. government's official web portal to all federal, state and local government web resources and services.